createdAt,value
2023-03-29T00:01:35.797Z,3.11
2023-03-29T00:04:04.709Z,3.40
2023-03-29T00:06:31.424Z,3.48
2023-03-29T00:08:57.885Z,3.60
2023-03-29T00:11:25.223Z,3.43
2023-03-29T00:13:52.051Z,3.76
2023-03-29T00:16:18.857Z,3.55
2023-03-29T00:18:45.372Z,3.23
2023-03-29T00:21:12.278Z,2.99
2023-03-29T00:23:38.871Z,3.20
2023-03-29T00:26:07.808Z,3.24
2023-03-29T00:28:34.661Z,3.51
2023-03-29T00:31:10.823Z,3.30
2023-03-29T00:33:38.625Z,3.50
2023-03-29T00:36:06.438Z,3.54
2023-03-29T00:38:33.175Z,3.48
2023-03-29T00:41:00.348Z,3.69
2023-03-29T00:43:27.525Z,3.96
2023-03-29T00:45:54.065Z,4.11
2023-03-29T00:48:27.517Z,3.84
2023-03-29T00:50:56.319Z,3.91
2023-03-29T00:53:34.898Z,3.88
2023-03-29T00:56:20.826Z,3.82
2023-03-29T00:59:13.055Z,3.73
2023-03-29T01:01:50.228Z,3.83
2023-03-29T01:04:25.427Z,3.84
2023-03-29T01:07:02.993Z,3.85
2023-03-29T01:09:35.443Z,3.67
2023-03-29T01:12:09.837Z,3.62
2023-03-29T01:14:45.804Z,3.83
2023-03-29T01:17:12.331Z,3.54
2023-03-29T01:19:51.868Z,3.65
2023-03-29T01:22:33.586Z,3.85
2023-03-29T01:25:34.582Z,3.79
2023-03-29T01:28:13.373Z,3.59
2023-03-29T01:30:48.203Z,3.69
2023-03-29T01:33:20.940Z,3.93
2023-03-29T01:36:24.450Z,3.60
2023-03-29T01:38:57.351Z,3.81
2023-03-29T01:41:35.576Z,3.61
2023-03-29T01:44:11.497Z,3.45
2023-03-29T01:46:47.852Z,3.68
2023-03-29T01:49:29.430Z,3.68
2023-03-29T01:52:06.474Z,3.97
2023-03-29T01:54:44.792Z,3.84
2023-03-29T01:57:12.467Z,3.81
2023-03-29T01:59:43.672Z,3.80
2023-03-29T02:02:15.846Z,3.60
2023-03-29T02:04:48.894Z,3.41
2023-03-29T02:07:19.166Z,3.66
2023-03-29T02:09:49.323Z,3.60
2023-03-29T02:12:17.077Z,3.53
2023-03-29T02:14:43.622Z,3.58
2023-03-29T02:17:22.565Z,3.42
2023-03-29T02:20:10.248Z,3.71
2023-03-29T02:22:46.716Z,3.88
2023-03-29T02:25:13.543Z,3.59
2023-03-29T02:27:40.217Z,3.46
2023-03-29T02:30:10.025Z,3.44
2023-03-29T02:33:14.848Z,3.17
2023-03-29T02:35:53.908Z,3.40
2023-03-29T02:38:23.516Z,3.69
2023-03-29T02:40:50.041Z,3.38
2023-03-29T02:43:17.118Z,3.45
2023-03-29T02:45:45.758Z,3.42
2023-03-29T02:48:17.953Z,3.11
2023-03-29T02:50:49.364Z,3.49
2023-03-29T02:53:20.511Z,3.24
2023-03-29T02:55:47.029Z,3.36
2023-03-29T02:58:14.800Z,3.30
2023-03-29T03:00:47.253Z,3.04
2023-03-29T03:03:14.898Z,3.05
2023-03-29T03:05:41.424Z,3.05
2023-03-29T03:08:07.888Z,3.28
2023-03-29T03:10:35.737Z,3.43
2023-03-29T03:13:02.790Z,2.87
2023-03-29T03:15:29.294Z,2.82
2023-03-29T03:17:55.749Z,2.79
2023-03-29T03:20:22.207Z,2.85
2023-03-29T03:22:49.453Z,2.69
2023-03-29T03:25:17.762Z,2.70
2023-03-29T03:27:44.346Z,2.95
2023-03-29T03:30:11.510Z,2.88
2023-03-29T03:32:38.152Z,2.59
2023-03-29T03:35:06.008Z,2.76
2023-03-29T03:37:32.569Z,2.81
2023-03-29T03:39:59.100Z,2.84
2023-03-29T03:42:28.441Z,2.62
2023-03-29T03:44:55.580Z,2.74
2023-03-29T03:47:22.896Z,2.62
2023-03-29T03:49:49.414Z,2.44
2023-03-29T03:52:15.956Z,2.69
2023-03-29T03:54:42.449Z,2.54
2023-03-29T03:57:09.015Z,2.65
2023-03-29T03:59:35.593Z,2.60
2023-03-29T04:02:02.118Z,2.67
2023-03-29T04:04:28.613Z,2.54
2023-03-29T04:06:55.126Z,2.71
2023-03-29T04:09:24.160Z,2.48
2023-03-29T04:11:50.718Z,2.54
2023-03-29T04:14:17.192Z,2.61
2023-03-29T04:16:43.778Z,2.66
2023-03-29T04:19:10.231Z,2.62
2023-03-29T04:21:36.744Z,2.32
2023-03-29T04:24:03.334Z,2.25
2023-03-29T04:26:29.832Z,2.28
2023-03-29T04:28:56.439Z,2.10
2023-03-29T04:31:23.061Z,2.02
2023-03-29T04:33:49.574Z,2.12
2023-03-29T04:36:16.153Z,2.14
2023-03-29T04:38:47.422Z,2.04
2023-03-29T04:41:14.787Z,2.03
2023-03-29T04:43:41.285Z,2.07
2023-03-29T04:46:07.949Z,2.23
2023-03-29T04:48:34.453Z,2.01
2023-03-29T04:51:01.074Z,2.02
2023-03-29T04:53:27.736Z,2.17
2023-03-29T04:55:54.182Z,2.05
2023-03-29T04:58:22.165Z,2.18
2023-03-29T05:00:50.221Z,2.27
2023-03-29T05:03:16.829Z,2.08
2023-03-29T05:05:43.289Z,2.17
2023-03-29T05:08:09.799Z,2.25
2023-03-29T05:10:37.149Z,2.10
2023-03-29T05:13:03.631Z,2.15
2023-03-29T05:15:31.001Z,2.03
2023-03-29T05:17:57.580Z,2.18
2023-03-29T05:20:25.275Z,2.14
2023-03-29T05:22:51.862Z,2.63
2023-03-29T05:25:18.363Z,2.21
2023-03-29T05:27:45.005Z,2.61
2023-03-29T05:30:13.813Z,2.58
2023-03-29T05:32:40.572Z,2.54
2023-03-29T05:35:07.452Z,2.65
2023-03-29T05:37:34.317Z,2.76
2023-03-29T05:40:05.965Z,2.91
2023-03-29T05:42:32.852Z,3.01
2023-03-29T05:44:59.442Z,2.78
2023-03-29T05:47:25.956Z,2.75
2023-03-29T05:49:52.523Z,2.74
2023-03-29T05:52:19.036Z,2.61
2023-03-29T05:54:45.526Z,2.78
2023-03-29T05:57:12.092Z,2.53
2023-03-29T05:59:38.620Z,2.77
2023-03-29T06:02:05.241Z,2.91
2023-03-29T06:04:31.871Z,2.71
2023-03-29T06:06:58.546Z,2.48
2023-03-29T06:09:25.029Z,2.25
2023-03-29T06:11:51.547Z,2.48
2023-03-29T06:14:18.028Z,2.49
2023-03-29T06:16:44.585Z,3.16
2023-03-29T06:19:11.077Z,2.63
2023-03-29T06:21:37.569Z,2.30
2023-03-29T06:24:04.402Z,2.32
2023-03-29T06:26:30.933Z,2.25
2023-03-29T06:28:57.553Z,2.68
2023-03-29T06:31:24.069Z,2.59
2023-03-29T06:33:50.577Z,2.37
2023-03-29T06:36:17.058Z,2.27
2023-03-29T06:38:43.863Z,2.30
2023-03-29T06:41:10.401Z,2.36
2023-03-29T06:43:37.559Z,2.70
2023-03-29T06:46:04.353Z,2.54
2023-03-29T06:48:30.932Z,2.61
2023-03-29T06:50:57.401Z,2.46
2023-03-29T06:53:23.858Z,2.36
2023-03-29T06:55:51.008Z,2.44
2023-03-29T06:58:17.520Z,2.45
2023-03-29T07:00:44.020Z,2.43
2023-03-29T07:03:10.531Z,2.56
2023-03-29T07:05:37.216Z,2.56
2023-03-29T07:08:03.715Z,2.27
2023-03-29T07:10:42.953Z,2.20
2023-03-29T07:13:11.015Z,2.93
2023-03-29T07:15:37.600Z,2.47
2023-03-29T07:18:04.126Z,1.75
2023-03-29T07:20:31.814Z,2.05
2023-03-29T07:22:58.394Z,2.09
2023-03-29T07:25:26.590Z,2.57
2023-03-29T07:27:53.595Z,2.60
2023-03-29T07:30:24.079Z,3.46
2023-03-29T07:32:51.527Z,4.11
2023-03-29T07:35:18.417Z,3.71
2023-03-29T07:37:45.575Z,6.07
2023-03-29T07:40:15.784Z,3.60
2023-03-29T07:42:43.933Z,3.45
2023-03-29T07:45:11.642Z,3.39
2023-03-29T07:47:38.157Z,2.90
2023-03-29T07:50:05.140Z,3.37
2023-03-29T07:52:31.643Z,5.58
2023-03-29T07:54:58.223Z,3.97
2023-03-29T07:57:25.946Z,3.21
2023-03-29T07:59:53.789Z,3.61
2023-03-29T08:02:20.386Z,3.21
2023-03-29T08:04:47.642Z,3.69
2023-03-29T08:07:17.647Z,3.46
2023-03-29T08:09:45.417Z,3.42
2023-03-29T08:12:12.006Z,3.47
2023-03-29T08:14:38.584Z,3.27
2023-03-29T08:17:07.468Z,3.11
2023-03-29T08:19:34.296Z,2.82
2023-03-29T08:22:00.757Z,2.61
2023-03-29T08:24:27.260Z,2.77
2023-03-29T08:26:53.788Z,2.61
2023-03-29T08:29:20.344Z,2.58
2023-03-29T08:31:46.821Z,2.03
2023-03-29T08:34:13.836Z,2.13
2023-03-29T08:36:40.353Z,2.25
2023-03-29T08:39:06.973Z,2.81
2023-03-29T08:42:00.511Z,1.91
2023-03-29T08:44:45.319Z,2.00
2023-03-29T08:47:33.387Z,2.38
2023-03-29T08:49:59.961Z,2.35
2023-03-29T08:52:45.291Z,2.26
2023-03-29T08:55:20.263Z,2.04
2023-03-29T08:57:50.791Z,1.77
2023-03-29T09:00:25.513Z,1.98
2023-03-29T09:02:54.011Z,2.26
2023-03-29T09:05:29.300Z,2.33
2023-03-29T09:07:55.846Z,2.63
2023-03-29T09:10:39.412Z,2.27
2023-03-29T09:13:17.337Z,2.97
2023-03-29T09:15:49.285Z,2.92
2023-03-29T09:18:45.090Z,3.72
2023-03-29T09:21:41.823Z,2.74
2023-03-29T09:24:42.857Z,2.95
2023-03-29T09:27:15.424Z,2.36
2023-03-29T09:30:06.906Z,2.71
2023-03-29T09:32:49.541Z,3.02
2023-03-29T09:35:29.323Z,2.87
2023-03-29T09:37:56.824Z,2.15
2023-03-29T09:40:39.823Z,1.98
2023-03-29T09:43:11.984Z,2.06
2023-03-29T09:45:40.863Z,2.14
2023-03-29T09:48:19.455Z,2.46
2023-03-29T09:50:49.248Z,3.28
2023-03-29T09:53:16.089Z,2.78
2023-03-29T09:55:47.748Z,2.36
2023-03-29T09:58:27.511Z,2.65
2023-03-29T10:00:58.687Z,3.02
2023-03-29T10:03:28.548Z,2.53
2023-03-29T10:05:59.261Z,2.62
2023-03-29T10:08:29.333Z,3.16
2023-03-29T10:11:01.257Z,3.23
2023-03-29T10:13:31.150Z,2.52
2023-03-29T10:16:03.485Z,2.18
2023-03-29T10:18:38.844Z,2.66
2023-03-29T10:21:05.933Z,2.57
2023-03-29T10:23:36.933Z,2.55
2023-03-29T10:26:08.256Z,2.53
2023-03-29T10:28:37.933Z,2.38
2023-03-29T10:31:05.154Z,2.55
2023-03-29T10:33:35.085Z,2.58
2023-03-29T10:36:06.567Z,3.18
2023-03-29T10:38:36.257Z,2.78
2023-03-29T10:41:08.760Z,2.43
2023-03-29T10:43:44.146Z,3.22
2023-03-29T10:46:18.810Z,3.11
2023-03-29T10:48:48.597Z,2.73
2023-03-29T10:51:16.981Z,2.97
2023-03-29T10:53:43.580Z,3.10
2023-03-29T10:56:42.277Z,3.54
2023-03-29T10:59:27.281Z,3.17
2023-03-29T11:02:53.342Z,3.08
2023-03-29T11:05:41.240Z,2.61
2023-03-29T11:08:25.192Z,2.80
2023-03-29T11:11:29.708Z,2.95
2023-03-29T11:14:16.940Z,3.26
2023-03-29T11:17:07.773Z,2.73
2023-03-29T11:19:57.233Z,2.55
2023-03-29T11:22:58.769Z,3.06
2023-03-29T11:25:26.681Z,2.95
2023-03-29T11:28:14.611Z,2.82
2023-03-29T11:30:57.331Z,2.82
2023-03-29T11:34:01.392Z,2.97
2023-03-29T11:36:39.910Z,2.93
2023-03-29T11:39:30.346Z,2.99
2023-03-29T11:42:12.167Z,4.40
2023-03-29T11:44:43.788Z,4.74
2023-03-29T11:47:19.832Z,3.93
2023-03-29T11:50:03.363Z,2.91
2023-03-29T11:52:48.746Z,2.61
2023-03-29T11:55:22.534Z,2.76
2023-03-29T11:58:18.617Z,3.05
2023-03-29T12:01:01.660Z,3.47
2023-03-29T12:03:41.558Z,4.10
2023-03-29T12:06:21.564Z,3.49
2023-03-29T12:09:07.754Z,3.03
2023-03-29T12:12:02.045Z,2.72
2023-03-29T12:15:13.384Z,2.95
2023-03-29T12:17:51.593Z,2.97
2023-03-29T12:20:23.834Z,2.74
2023-03-29T12:22:50.613Z,2.65
2023-03-29T12:25:24.905Z,2.41
2023-03-29T12:28:20.822Z,2.41
2023-03-29T12:31:00.505Z,2.58
2023-03-29T12:33:43.887Z,2.57
2023-03-29T12:36:47.379Z,2.56
2023-03-29T12:39:18.220Z,3.25
2023-03-29T12:41:45.844Z,3.07
2023-03-29T12:44:16.419Z,2.84
2023-03-29T12:46:44.132Z,2.75
2023-03-29T12:49:23.627Z,2.58
2023-03-29T12:51:50.224Z,2.50
2023-03-29T12:54:22.509Z,2.33
2023-03-29T12:56:52.076Z,2.43
2023-03-29T12:59:39.810Z,3.65
2023-03-29T13:02:12.433Z,2.77
2023-03-29T13:04:54.818Z,2.80
2023-03-29T13:07:24.227Z,2.99
2023-03-29T13:09:56.790Z,2.80
2023-03-29T13:12:36.175Z,3.55
2023-03-29T13:15:16.463Z,3.23
2023-03-29T13:18:19.399Z,2.91
2023-03-29T13:20:58.815Z,2.51
2023-03-29T13:24:00.337Z,4.30
2023-03-29T13:26:57.428Z,4.99
2023-03-29T13:29:44.585Z,3.64
2023-03-29T13:32:31.806Z,2.92
2023-03-29T13:35:22.456Z,2.31
2023-03-29T13:38:04.231Z,2.66
2023-03-29T13:40:32.604Z,4.01
2023-03-29T13:43:18.815Z,3.00
2023-03-29T13:45:57.678Z,3.01
2023-03-29T13:48:36.443Z,2.55
2023-03-29T13:51:02.881Z,2.96
2023-03-29T13:53:39.297Z,3.27
2023-03-29T13:56:10.778Z,3.03
2023-03-29T13:58:43.119Z,3.03
2023-03-29T14:01:53.012Z,2.84
2023-03-29T14:04:25.302Z,2.48
2023-03-29T14:06:56.055Z,2.47
2023-03-29T14:09:29.608Z,2.52
2023-03-29T14:11:58.956Z,2.98
2023-03-29T14:14:29.839Z,3.22
2023-03-29T14:16:57.101Z,3.18
2023-03-29T14:19:31.625Z,2.56
2023-03-29T14:22:01.155Z,2.66
2023-03-29T14:24:37.420Z,2.74
2023-03-29T14:27:06.363Z,2.67
2023-03-29T14:29:34.932Z,2.70
2023-03-29T14:32:13.763Z,2.65
2023-03-29T14:34:40.773Z,2.39
2023-03-29T14:37:10.044Z,2.76
2023-03-29T14:39:37.376Z,2.87
2023-03-29T14:42:10.370Z,3.03
2023-03-29T14:44:36.911Z,2.94
2023-03-29T14:47:03.816Z,2.94
2023-03-29T14:49:32.147Z,2.85
2023-03-29T14:51:59.176Z,2.82
2023-03-29T14:54:29.851Z,3.39
2023-03-29T14:56:56.470Z,2.49
2023-03-29T14:59:35.898Z,3.16
2023-03-29T15:02:02.685Z,2.95
2023-03-29T15:04:36.044Z,3.53
2023-03-29T15:07:04.399Z,3.04
2023-03-29T15:09:34.629Z,2.83
2023-03-29T15:12:03.239Z,2.76
2023-03-29T15:14:33.291Z,3.81
2023-03-29T15:17:06.545Z,2.46
2023-03-29T15:19:33.895Z,2.84
2023-03-29T15:22:04.539Z,2.83
2023-03-29T15:24:33.553Z,3.14
2023-03-29T15:27:03.948Z,2.84
2023-03-29T15:29:36.009Z,2.92
2023-03-29T15:32:02.895Z,3.34
2023-03-29T15:34:31.654Z,3.98
2023-03-29T15:37:00.566Z,3.47
2023-03-29T15:39:28.859Z,3.41
2023-03-29T15:41:57.733Z,3.75
2023-03-29T15:44:31.776Z,4.47
2023-03-29T15:46:58.384Z,3.59
2023-03-29T15:49:25.865Z,5.15
2023-03-29T15:51:53.869Z,4.24
2023-03-29T15:54:21.597Z,3.91
2023-03-29T15:56:54.401Z,2.94
2023-03-29T15:59:21.763Z,3.29
2023-03-29T16:01:48.985Z,4.12
2023-03-29T16:04:18.369Z,3.26
2023-03-29T16:06:47.322Z,3.28
2023-03-29T16:09:14.423Z,3.71
2023-03-29T16:11:42.498Z,4.35
2023-03-29T16:14:25.051Z,6.10
2023-03-29T16:16:52.172Z,3.77
2023-03-29T16:19:19.501Z,3.29
2023-03-29T16:21:46.035Z,2.85
2023-03-29T16:24:18.588Z,3.43
2023-03-29T16:26:45.778Z,4.06
2023-03-29T16:29:12.637Z,4.21
2023-03-29T16:31:39.204Z,3.73
2023-03-29T16:34:06.151Z,4.89
2023-03-29T16:36:32.696Z,3.41
2023-03-29T16:38:59.946Z,3.12
2023-03-29T16:41:26.476Z,4.98
2023-03-29T16:43:53.253Z,3.93
2023-03-29T16:46:19.804Z,3.82
2023-03-29T16:48:46.324Z,4.12
2023-03-29T16:51:12.831Z,3.85
2023-03-29T16:53:39.529Z,3.27
2023-03-29T16:56:06.504Z,3.51
2023-03-29T16:58:33.060Z,3.68
2023-03-29T17:01:07.727Z,4.91
2023-03-29T17:03:35.684Z,4.07
2023-03-29T17:06:02.829Z,3.94
2023-03-29T17:08:29.953Z,3.93
2023-03-29T17:10:56.610Z,3.77
2023-03-29T17:13:23.750Z,4.47
2023-03-29T17:15:51.275Z,4.61
2023-03-29T17:18:18.752Z,3.86
2023-03-29T17:20:45.317Z,3.78
2023-03-29T17:23:12.332Z,4.03
2023-03-29T17:25:38.992Z,4.28
2023-03-29T17:28:05.586Z,4.35
2023-03-29T17:30:34.246Z,4.10
2023-03-29T17:33:01.013Z,4.52
2023-03-29T17:35:27.708Z,4.98
2023-03-29T17:37:54.357Z,4.52
2023-03-29T17:40:21.439Z,4.53
2023-03-29T17:42:47.969Z,5.13
2023-03-29T17:45:15.810Z,5.02
2023-03-29T17:47:42.275Z,5.09
2023-03-29T17:50:11.258Z,4.85
2023-03-29T17:52:37.865Z,4.19
2023-03-29T17:55:04.554Z,4.87
2023-03-29T17:57:31.015Z,4.73
2023-03-29T17:59:57.505Z,5.02
2023-03-29T18:02:24.578Z,4.47
2023-03-29T18:04:51.141Z,4.88
2023-03-29T18:07:17.651Z,5.21
2023-03-29T18:09:44.147Z,6.19
2023-03-29T18:12:10.645Z,5.86
2023-03-29T18:14:37.136Z,5.87
2023-03-29T18:17:03.681Z,5.75
2023-03-29T18:19:30.311Z,6.12
2023-03-29T18:21:56.798Z,5.82
2023-03-29T18:24:23.299Z,5.49
2023-03-29T18:26:49.794Z,5.67
2023-03-29T18:29:16.286Z,5.67
2023-03-29T18:31:42.953Z,5.75
2023-03-29T18:34:09.464Z,7.90
2023-03-29T18:36:35.925Z,7.15
2023-03-29T18:39:02.614Z,6.58
2023-03-29T18:41:29.090Z,5.93
2023-03-29T18:43:55.566Z,5.75
2023-03-29T18:46:22.217Z,5.46
2023-03-29T18:48:48.755Z,5.14
2023-03-29T18:51:15.271Z,5.65
2023-03-29T18:53:41.774Z,4.80
2023-03-29T18:56:08.948Z,4.79
2023-03-29T18:58:35.431Z,5.25
2023-03-29T19:01:03.737Z,5.31
2023-03-29T19:03:31.936Z,5.00
2023-03-29T19:05:58.586Z,4.81
2023-03-29T19:08:25.311Z,5.68
2023-03-29T19:10:53.104Z,6.06
2023-03-29T19:13:19.926Z,5.73
2023-03-29T19:15:46.520Z,5.24
2023-03-29T19:18:13.037Z,5.43
2023-03-29T19:20:39.534Z,4.67
2023-03-29T19:23:06.030Z,4.65
2023-03-29T19:25:32.590Z,5.66
2023-03-29T19:27:59.987Z,5.43
2023-03-29T19:30:26.591Z,5.08
2023-03-29T19:32:53.109Z,4.99
2023-03-29T19:35:20.203Z,5.25
2023-03-29T19:37:46.699Z,5.58
2023-03-29T19:40:13.381Z,4.63
2023-03-29T19:42:40.590Z,5.18
2023-03-29T19:45:08.478Z,4.96
2023-03-29T19:47:35.667Z,5.52
2023-03-29T19:50:02.606Z,5.54
2023-03-29T19:52:29.873Z,5.44
2023-03-29T19:54:57.146Z,6.51
2023-03-29T19:57:23.956Z,17.23
2023-03-29T19:59:51.023Z,47.87
2023-03-29T20:02:17.584Z,13.43
2023-03-29T20:04:44.377Z,9.31
2023-03-29T20:07:11.090Z,7.84
2023-03-29T20:09:37.622Z,9.71
2023-03-29T20:12:04.721Z,7.75
2023-03-29T20:14:31.394Z,6.16
2023-03-29T20:16:57.896Z,6.12
2023-03-29T20:19:24.419Z,6.00
2023-03-29T20:21:52.549Z,6.01
2023-03-29T20:24:19.012Z,7.87
2023-03-29T20:26:45.495Z,11.63
2023-03-29T20:29:12.003Z,7.18
2023-03-29T20:31:38.639Z,6.71
2023-03-29T20:34:05.164Z,6.50
2023-03-29T20:36:31.749Z,6.18
2023-03-29T20:38:58.484Z,6.58
2023-03-29T20:41:25.467Z,6.31
2023-03-29T20:43:52.144Z,6.89
2023-03-29T20:46:18.755Z,7.29
2023-03-29T20:48:45.280Z,6.90
2023-03-29T20:51:12.435Z,5.76
2023-03-29T20:53:38.926Z,5.30
2023-03-29T20:56:05.551Z,5.40
2023-03-29T20:58:32.072Z,6.12
2023-03-29T21:00:58.531Z,5.83
2023-03-29T21:03:25.185Z,6.35
2023-03-29T21:05:54.842Z,6.19
2023-03-29T21:08:21.459Z,5.68
2023-03-29T21:10:47.945Z,6.17
2023-03-29T21:13:14.462Z,6.62
2023-03-29T21:15:41.016Z,6.70
2023-03-29T21:18:07.546Z,6.70
2023-03-29T21:20:36.411Z,6.16
2023-03-29T21:23:02.982Z,7.84
2023-03-29T21:25:29.464Z,7.92
2023-03-29T21:27:55.960Z,6.91
2023-03-29T21:30:22.450Z,7.12
2023-03-29T21:32:48.922Z,6.18
2023-03-29T21:35:15.491Z,6.67
2023-03-29T21:37:41.987Z,7.16
2023-03-29T21:40:08.838Z,6.55
2023-03-29T21:42:35.373Z,6.99
2023-03-29T21:45:02.282Z,6.73
2023-03-29T21:47:28.875Z,6.38
2023-03-29T21:49:55.508Z,6.18
2023-03-29T21:52:21.987Z,5.96
2023-03-29T21:54:48.485Z,6.40
2023-03-29T21:57:15.033Z,6.69
2023-03-29T21:59:41.524Z,5.80
2023-03-29T22:02:08.109Z,6.10
2023-03-29T22:04:37.153Z,5.98
2023-03-29T22:07:05.229Z,5.73
2023-03-29T22:09:33.233Z,5.60
2023-03-29T22:11:59.970Z,5.52
2023-03-29T22:14:26.506Z,5.90
2023-03-29T22:16:53.035Z,5.19
2023-03-29T22:19:19.539Z,4.53
2023-03-29T22:21:46.040Z,5.29
2023-03-29T22:24:12.515Z,5.43
2023-03-29T22:26:38.962Z,4.77
2023-03-29T22:29:05.450Z,5.13
2023-03-29T22:31:32.629Z,5.14
2023-03-29T22:33:59.178Z,5.31
2023-03-29T22:36:28.592Z,4.95
2023-03-29T22:38:55.867Z,5.21
2023-03-29T22:41:24.657Z,4.41
2023-03-29T22:43:52.576Z,4.76
2023-03-29T22:46:19.739Z,4.90
2023-03-29T22:48:47.130Z,4.78
2023-03-29T22:51:14.280Z,5.14
2023-03-29T22:53:40.787Z,4.71
2023-03-29T22:56:07.939Z,5.07
2023-03-29T22:58:35.614Z,4.79
2023-03-29T23:01:02.225Z,5.15
2023-03-29T23:03:28.857Z,5.21
2023-03-29T23:05:58.241Z,5.22
2023-03-29T23:08:25.087Z,4.81
2023-03-29T23:10:52.393Z,5.00
2023-03-29T23:13:19.650Z,4.97
2023-03-29T23:15:48.522Z,5.03
2023-03-29T23:18:16.464Z,4.91
2023-03-29T23:20:42.995Z,5.52
2023-03-29T23:23:09.815Z,5.46
2023-03-29T23:25:36.525Z,4.84
2023-03-29T23:28:03.869Z,4.72
2023-03-29T23:30:30.421Z,4.26
2023-03-29T23:32:56.905Z,4.31
2023-03-29T23:35:23.420Z,4.74
2023-03-29T23:37:49.951Z,4.61
2023-03-29T23:40:16.493Z,4.67
2023-03-29T23:42:45.408Z,4.56
2023-03-29T23:45:15.129Z,4.62
2023-03-29T23:47:43.364Z,5.07
2023-03-29T23:50:12.396Z,4.00
2023-03-29T23:52:40.698Z,4.21
2023-03-29T23:55:12.235Z,4.58
2023-03-29T23:57:38.722Z,4.55
